Time;durP1;ratioP1;P1;durP2;ratioP2;P2;SDS_P1;SDS_P2;PMS_P1;PMS_P2;Temp;Humidity;BMP_temperature;BMP_pressure;BME280_temperature;BME280_humidity;BME280_pressure;Samples;Min_cycle;Max_cycle;Signal;HPM_P1;HPM_P2
2021/07/18 00:01:18;;;;;;;;;;;;;;;18.12;100.00;99023.32;1659355;86;20129;-67
2021/07/18 00:03:45;;;;;;;;;;;;;;;18.10;100.00;99035.05;1659725;86;20185;-68
2021/07/18 00:06:12;;;;;;;;;;;;;;;18.13;100.00;99033.66;1659722;86;21122;-68
2021/07/18 00:08:38;;;;;;;;;;;;;;;18.23;100.00;99023.02;1659602;86;20188;-68
2021/07/18 00:11:05;;;;;;;;;;;;;;;18.38;100.00;99013.86;1659597;86;20121;-69
2021/07/18 00:13:33;;;;;;;;;;;;;;;18.65;100.00;99014.67;1659526;86;20098;-69
2021/07/18 00:16:01;;;;;;;;;;;;;;;18.86;100.00;99020.27;1659323;86;20444;-68
2021/07/18 00:18:28;;;;;;;;;;;;;;;18.99;100.00;99002.99;1659395;86;21199;-70
2021/07/18 00:20:55;;;;;;;;;;;;;;;19.13;100.00;98992.47;1659488;86;20090;-70
2021/07/18 00:23:22;;;;;;;;;;;;;;;19.20;100.00;98981.33;1659299;86;20093;-70
2021/07/18 00:25:48;;;;;;;;;;;;;;;19.32;100.00;98990.73;1659341;86;20174;-69
2021/07/18 00:28:15;;;;;;;;;;;;;;;19.39;100.00;98991.83;1659623;86;20086;-69
2021/07/18 00:30:41;;;;;;;;;;;;;;;19.45;100.00;98987.82;1659387;86;21189;-70
2021/07/18 00:33:08;;;;;;;;;;;;;;;19.43;100.00;98985.19;1640252;86;20433;-68
2021/07/18 00:35:34;;;;;;;;;;;;;;;19.42;100.00;98982.22;1638080;87;20102;-70
2021/07/18 00:38:01;;;;;;;;;;;;;;;19.46;100.00;98977.73;1638337;87;20114;-69
2021/07/18 00:40:27;;;;;;;;;;;;;;;19.43;100.00;98975.09;1638157;87;20137;-70
2021/07/18 00:42:55;;;;;;;;;;;;;;;19.42;100.00;98983.01;1638345;87;21154;-69
2021/07/18 00:45:22;;;;;;;;;;;;;;;19.42;100.00;98974.84;1638089;87;20086;-69
2021/07/18 00:47:50;;;;;;;;;;;;;;;19.38;100.00;98975.28;1638285;86;20168;-70
2021/07/18 00:50:18;;;;;;;;;;;;;;;19.33;100.00;98964.58;1638087;86;20153;-70
2021/07/18 00:52:45;;;;;;;;;;;;;;;19.32;100.00;98960.81;1638302;87;20089;-71
2021/07/18 00:55:12;;;;;;;;;;;;;;;19.28;100.00;98948.44;1638136;87;21156;-71
2021/07/18 00:57:39;;;;;;;;;;;;;;;19.28;100.00;98940.27;1638077;87;20129;-69
2021/07/18 01:00:08;;;;;;;;;;;;;;;19.29;100.00;98941.86;1638208;87;20098;-69
2021/07/18 01:02:36;;;;;;;;;;;;;;;19.26;100.00;98946.59;1638481;87;20107;-70
2021/07/18 01:05:06;;;;;;;;;;;;;;;19.21;100.00;98942.13;1638198;87;20093;-70
2021/07/18 01:07:33;;;;;;;;;;;;;;;19.16;100.00;98940.16;1638480;87;21102;-70
2021/07/18 01:10:04;;;;;;;;;;;;;;;19.09;100.00;98939.30;1618009;86;20255;-69
2021/07/18 01:12:32;;;;;;;;;;;;;;;19.01;100.00;98933.30;1637869;86;20441;-70
2021/07/18 01:14:59;;;;;;;;;;;;;;;18.95;100.00;98930.53;1638214;87;20174;-70
2021/07/18 01:17:26;;;;;;;;;;;;;;;18.87;100.00;98936.23;1638515;87;20142;-70
2021/07/18 01:19:53;;;;;;;;;;;;;;;18.82;100.00;98935.84;1638260;87;21203;-70
2021/07/18 01:22:20;;;;;;;;;;;;;;;18.77;100.00;98940.09;1638077;87;20440;-70
2021/07/18 01:24:47;;;;;;;;;;;;;;;18.71;100.00;98940.55;1637986;86;20085;-70
2021/07/18 01:27:14;;;;;;;;;;;;;;;18.62;100.00;98938.66;1663316;86;20114;-70
2021/07/18 01:29:41;;;;;;;;;;;;;;;18.59;100.00;98935.23;1663319;86;20106;-70
2021/07/18 01:32:08;;;;;;;;;;;;;;;18.58;100.00;98934.17;1657073;84;21135;-71
2021/07/18 01:34:35;;;;;;;;;;;;;;;18.58;100.00;98934.17;1706659;83;20119;-70
2021/07/18 01:37:02;;;;;;;;;;;;;;;18.54;100.00;98928.57;1707003;83;20126;-70
2021/07/18 01:39:29;;;;;;;;;;;;;;;18.49;100.00;98927.37;1706784;83;20446;-70
2021/07/18 01:41:57;;;;;;;;;;;;;;;18.47;100.00;98927.47;1706666;84;20173;-70
2021/07/18 01:44:24;;;;;;;;;;;;;;;18.50;100.00;98933.64;1706895;84;21133;-70
2021/07/18 01:46:50;;;;;;;;;;;;;;;18.49;100.00;98926.02;1706765;83;20078;-70
2021/07/18 01:49:16;;;;;;;;;;;;;;;18.49;100.00;98927.37;1706664;83;20182;-70
2021/07/18 01:51:43;;;;;;;;;;;;;;;18.45;100.00;98933.23;1706809;83;20118;-70
2021/07/18 01:54:10;;;;;;;;;;;;;;;18.41;100.00;98934.98;1707195;84;20102;-70
2021/07/18 01:56:37;;;;;;;;;;;;;;;18.39;100.00;98932.58;1706618;83;21151;-70
2021/07/18 01:59:05;;;;;;;;;;;;;;;18.36;100.00;98927.00;1706636;83;20086;-70
2021/07/18 02:01:33;;;;;;;;;;;;;;;18.31;100.00;98919.81;1706963;83;20163;-71
2021/07/18 02:04:01;;;;;;;;;;;;;;;18.25;100.00;98924.36;1706611;84;20467;-70
2021/07/18 02:06:29;;;;;;;;;;;;;;;18.18;100.00;98928.37;1707022;83;20256;-71
2021/07/18 02:08:57;;;;;;;;;;;;;;;18.09;100.00;98931.63;1707039;83;21115;-70
2021/07/18 02:11:24;;;;;;;;;;;;;;;18.02;100.00;98921.80;1706722;83;20443;-70
2021/07/18 02:13:52;;;;;;;;;;;;;;;17.97;100.00;98919.23;1706996;84;20111;-70
2021/07/18 02:16:20;;;;;;;;;;;;;;;17.91;100.00;98909.11;1706912;83;20126;-70
2021/07/18 02:18:49;;;;;;;;;;;;;;;17.90;100.00;98910.77;1706542;83;20167;-70
2021/07/18 02:21:18;;;;;;;;;;;;;;;17.96;100.00;98903.52;1706979;83;21125;-70
2021/07/18 02:23:44;;;;;;;;;;;;;;;18.09;100.00;98907.75;1706753;84;20087;-70
2021/07/18 02:26:11;;;;;;;;;;;;;;;18.23;100.00;98906.22;1706782;84;20144;-70
2021/07/18 02:28:38;;;;;;;;;;;;;;;18.25;100.00;98913.49;1706787;83;20127;-71
2021/07/18 02:31:05;;;;;;;;;;;;;;;18.24;100.00;98920.05;1707045;83;20460;-70
2021/07/18 02:33:33;;;;;;;;;;;;;;;18.21;100.00;98921.49;1685620;82;21164;-70
2021/07/18 02:36:01;;;;;;;;;;;;;;;18.22;100.00;98917.65;1679900;85;20448;-71
2021/07/18 02:38:28;;;;;;;;;;;;;;;18.19;100.00;98912.86;1684820;84;20096;-70
2021/07/18 02:40:58;;;;;;;;;;;;;;;18.16;100.00;98918.94;1684829;84;20103;-70
2021/07/18 02:43:25;;;;;;;;;;;;;;;18.14;100.00;98917.89;1684768;84;20108;-70
2021/07/18 02:45:52;;;;;;;;;;;;;;;18.15;100.00;98923.58;1684611;84;22057;-70
2021/07/18 02:48:18;;;;;;;;;;;;;;;18.17;100.00;98921.32;1684632;84;20100;-70
2021/07/18 02:50:45;;;;;;;;;;;;;;;18.20;100.00;98914.45;1667184;85;20076;-70
2021/07/18 02:53:13;;;;;;;;;;;;;;;18.32;100.00;98915.17;1684761;84;20124;-70
2021/07/18 02:55:42;;;;;;;;;;;;;;;18.45;100.00;98912.86;1685050;84;37001;-70
2021/07/18 02:58:09;;;;;;;;;;;;;;;18.62;100.00;98916.12;1684697;84;21155;-69
2021/07/18 03:00:37;;;;;;;;;;;;;;;18.77;100.00;98916.20;1684605;84;20178;-70
2021/07/18 03:03:05;;;;;;;;;;;;;;;18.90;100.00;98921.98;1684663;84;20123;-70
2021/07/18 03:05:33;;;;;;;;;;;;;;;19.03;100.00;98912.84;1684766;84;20438;-70
2021/07/18 03:08:00;;;;;;;;;;;;;;;19.15;100.00;98914.06;1684764;84;20095;-70
2021/07/18 03:10:26;;;;;;;;;;;;;;;19.23;100.00;98909.97;1684770;84;21150;-70
2021/07/18 03:12:53;;;;;;;;;;;;;;;19.25;100.00;98913.13;1684522;84;20107;-69
2021/07/18 03:15:20;;;;;;;;;;;;;;;19.30;100.00;98916.80;1684707;84;20155;-70
2021/07/18 03:17:46;;;;;;;;;;;;;;;19.38;100.00;98917.34;1684711;84;20156;-70
2021/07/18 03:20:15;;;;;;;;;;;;;;;19.44;100.00;98916.81;1684714;84;20131;-70
2021/07/18 03:22:42;;;;;;;;;;;;;;;19.49;100.00;98918.55;1684802;84;21142;-70
2021/07/18 03:25:11;;;;;;;;;;;;;;;19.56;100.00;98916.12;1684736;84;20123;-70
2021/07/18 03:27:38;;;;;;;;;;;;;;;19.65;100.00;98920.95;1684545;84;20163;-71
2021/07/18 03:30:09;;;;;;;;;;;;;;;19.71;100.00;98924.30;1684718;84;20439;-70
2021/07/18 03:32:36;;;;;;;;;;;;;;;19.81;100.00;98928.57;1684638;84;20730;-70
2021/07/18 03:35:04;;;;;;;;;;;;;;;19.94;100.00;98938.97;1684404;84;21536;-70
2021/07/18 03:37:31;;;;;;;;;;;;;;;20.01;100.00;98933.80;1684402;84;20443;-70
2021/07/18 03:39:59;;;;;;;;;;;;;;;20.07;100.00;98936.57;1684550;84;20163;-70
2021/07/18 03:42:27;;;;;;;;;;;;;;;20.15;100.00;98930.25;1684516;85;20136;-70
2021/07/18 03:44:54;;;;;;;;;;;;;;;20.26;100.00;98936.09;1684467;85;20104;-70
2021/07/18 03:47:20;;;;;;;;;;;;;;;20.41;100.00;98937.44;1684592;85;21151;-70
2021/07/18 03:49:47;;;;;;;;;;;;;;;20.52;100.00;98946.78;1684515;84;20087;-71
2021/07/18 03:52:16;;;;;;;;;;;;;;;20.56;100.00;98939.56;1684413;85;20103;-70
2021/07/18 03:54:43;;;;;;;;;;;;;;;20.60;100.00;98935.59;1684567;84;20740;-71
2021/07/18 03:57:11;;;;;;;;;;;;;;;20.60;100.00;98935.02;1684481;84;20166;-71
2021/07/18 03:59:37;;;;;;;;;;;;;;;20.65;100.00;98934.02;1684593;85;21151;-71
2021/07/18 04:02:05;;;;;;;;;;;;;;;20.74;100.00;98936.09;1684541;84;20471;-71
2021/07/18 04:04:37;;;;;;;;;;;;;;;20.81;100.00;98937.70;1684644;84;20467;-71
2021/07/18 04:07:04;;;;;;;;;;;;;;;20.96;100.00;98943.09;1684258;85;20115;-71
2021/07/18 04:09:32;;;;;;;;;;;;;;;21.18;100.00;98937.78;1684683;84;20152;-71
2021/07/18 04:11:59;;;;;;;;;;;;;;;21.33;100.00;98940.41;1684698;85;21117;-71
2021/07/18 04:14:26;;;;;;;;;;;;;;;21.47;100.00;98941.48;1684741;84;20398;-71
2021/07/18 04:16:52;;;;;;;;;;;;;;;21.58;100.00;98943.97;1684802;84;20107;-72
2021/07/18 04:19:19;;;;;;;;;;;;;;;21.74;100.00;98950.34;1684544;85;20748;-71
2021/07/18 04:21:47;;;;;;;;;;;;;;;21.91;100.00;98944.41;1684666;84;20079;-73
2021/07/18 04:24:14;;;;;;;;;;;;;;;21.99;100.00;98946.21;1684493;85;21764;-72
2021/07/18 04:26:41;;;;;;;;;;;;;;;22.10;100.00;98942.42;1684732;84;20115;-72
2021/07/18 04:29:07;;;;;;;;;;;;;;;22.33;100.00;98949.00;1684805;85;20453;-72
2021/07/18 04:31:35;;;;;;;;;;;;;;;22.61;100.00;98952.31;1669033;85;21069;-71
2021/07/18 04:34:01;;;;;;;;;;;;;;;22.78;100.00;98951.20;1684728;84;20103;-72
2021/07/18 04:36:29;;;;;;;;;;;;;;;22.88;100.00;98950.14;1685110;84;20901;-72
2021/07/18 04:38:57;;;;;;;;;;;;;;;22.83;100.00;98947.67;1684671;84;20210;-71
2021/07/18 04:41:25;;;;;;;;;;;;;;;22.83;100.00;98949.58;1684838;84;20120;-71
2021/07/18 04:43:54;;;;;;;;;;;;;;;22.95;100.00;98953.62;1684859;84;20140;-72
2021/07/18 04:46:20;;;;;;;;;;;;;;;23.10;100.00;98956.18;1685056;84;20162;-71
2021/07/18 04:48:47;;;;;;;;;;;;;;;23.22;100.00;98958.84;1684649;84;20766;-71
2021/07/18 04:51:14;;;;;;;;;;;;;;;23.42;100.00;98949.34;1683015;84;20187;-72
2021/07/18 04:54:13;;;;;;;;;;;;;;;23.67;100.00;98950.75;1684153;84;20084;-71
2021/07/18 04:56:45;;;;;;;;;;;;;;;23.72;100.00;98953.80;1683059;84;20127;-71
2021/07/18 04:59:13;;;;;;;;;;;;;;;23.51;100.00;98952.13;1684659;84;20159;-69
2021/07/18 05:01:40;;;;;;;;;;;;;;;23.40;100.00;98955.20;1684805;84;21755;-70
2021/07/18 05:04:06;;;;;;;;;;;;;;;23.39;100.00;98957.70;1684341;84;20560;-70
2021/07/18 05:06:38;;;;;;;;;;;;;;;23.60;100.00;98953.91;1684905;84;20161;-71
2021/07/18 05:09:27;;;;;;;;;;;;;;;23.75;100.00;98961.33;1684281;84;20103;-70
2021/07/18 05:12:14;;;;;;;;;;;;;;;23.93;100.00;98954.33;1684687;84;20140;-69
2021/07/18 05:14:42;;;;;;;;;;;;;;;24.06;100.00;98961.05;1684432;84;21335;-70
2021/07/18 05:17:10;;;;;;;;;;;;;;;24.30;100.00;98963.53;1684776;84;20100;-72
2021/07/18 05:19:58;;;;;;;;;;;;;;;24.57;100.00;98959.02;1684023;84;20510;-70
2021/07/18 05:22:28;;;;;;;;;;;;;;;24.76;100.00;98961.52;1684255;84;20146;-71
2021/07/18 05:24:54;;;;;;;;;;;;;;;25.02;100.00;98969.06;1684789;83;20194;-70
2021/07/18 05:27:21;;;;;;;;;;;;;;;25.16;100.00;98965.77;1684617;84;21143;-71
2021/07/18 05:29:49;;;;;;;;;;;;;;;25.24;100.00;98972.43;1685001;84;20142;-71
2021/07/18 05:32:16;;;;;;;;;;;;;;;25.37;100.00;98971.66;1684541;84;20463;-70
2021/07/18 05:34:42;;;;;;;;;;;;;;;25.24;100.00;98977.92;1686088;84;20099;-71
2021/07/18 05:37:10;;;;;;;;;;;;;;;25.26;100.00;98982.24;1686571;84;20207;-71
2021/07/18 05:39:38;;;;;;;;;;;;;;;25.51;100.00;98987.59;1686752;84;21615;-72
2021/07/18 05:42:04;;;;;;;;;;;;;;;25.60;100.00;98991.45;1686891;84;20096;-72
2021/07/18 05:44:33;;;;;;;;;;;;;;;25.74;100.00;98993.05;1660781;85;20167;-72
2021/07/18 05:47:00;;;;;;;;;;;;;;;25.96;100.00;98991.45;1645742;85;20146;-73
2021/07/18 05:50:16;;;;;;;;;;;;;;;26.31;100.00;98994.48;1684103;84;20151;-77
2021/07/18 05:52:58;;;;;;;;;;;;;;;26.43;100.00;98996.21;1682365;84;21145;-77
2021/07/18 05:56:24;;;;;;;;;;;;;;;26.35;100.00;99004.17;1643948;84;20147;-78
2021/07/18 05:59:35;;;;;;;;;;;;;;;;;;;;;
2021/07/18 06:02:35;;;;;;;;;;;;;;;26.55;100.00;99004.26;1685047;84;20091;-75
2021/07/18 06:05:12;;;;;;;;;;;;;;;26.77;100.00;99002.55;1645918;87;20197;-76
2021/07/18 06:07:40;;;;;;;;;;;;;;;27.07;100.00;99000.31;1650749;87;21126;-76
2021/07/18 06:10:11;;;;;;;;;;;;;;;26.94;100.00;99010.22;1643500;87;20171;-75
2021/07/18 06:12:41;;;;;;;;;;;;;;;27.04;100.00;99003.83;1649875;86;20094;-74
2021/07/18 06:15:44;;;;;;;;;;;;;;;27.19;100.00;99008.92;1650947;87;20150;-74
2021/07/18 06:18:20;;;;;;;;;;;;;;;27.19;100.00;99011.68;1600815;87;20169;-73
2021/07/18 06:20:48;;;;;;;;;;;;;;;27.28;100.00;99006.06;1612748;89;21912;-72
2021/07/18 06:23:16;;;;;;;;;;;;;;;27.28;100.00;99015.71;1579319;91;20168;-72
2021/07/18 06:25:45;;;;;;;;;;;;;;;27.62;100.00;99021.73;1553616;92;20431;-74
2021/07/18 06:28:11;;;;;;;;;;;;;;;27.77;100.00;99018.69;1579014;91;20153;-74
2021/07/18 06:30:39;;;;;;;;;;;;;;;27.73;100.00;99004.11;1553382;92;20206;-72
2021/07/18 06:33:06;;;;;;;;;;;;;;;28.03;100.00;99005.09;1578114;89;20774;-72
2021/07/18 06:35:35;;;;;;;;;;;;;;;28.40;100.00;99003.55;1552817;91;20150;-74
2021/07/18 06:38:07;;;;;;;;;;;;;;;28.53;100.00;99008.95;1578674;91;20169;-75
2021/07/18 06:40:36;;;;;;;;;;;;;;;28.36;100.00;99013.18;1553979;92;20204;-70
2021/07/18 06:43:05;;;;;;;;;;;;;;;28.29;100.00;99009.00;1579183;89;20453;-73
2021/07/18 06:45:31;;;;;;;;;;;;;;;28.71;100.00;99013.75;1552395;91;21580;-73
2021/07/18 06:48:02;;;;;;;;;;;;;;;29.21;100.00;99011.95;1553555;91;20149;-72
2021/07/18 06:50:29;;;;;;;;;;;;;;;29.30;98.35;99017.68;1590839;89;20194;-73
2021/07/18 06:52:57;;;;;;;;;;;;;;;29.38;100.00;99015.92;1611741;89;20464;-69
2021/07/18 06:55:26;;;;;;;;;;;;;;;29.59;98.47;99013.75;1611919;89;20146;-71
2021/07/18 06:57:53;;;;;;;;;;;;;;;29.45;94.08;99007.64;1611439;89;21513;-71
2021/07/18 07:00:21;;;;;;;;;;;;;;;29.30;94.83;99006.05;1611698;89;20145;-73
2021/07/18 07:02:50;;;;;;;;;;;;;;;29.22;98.50;99005.23;1611677;89;20166;-71
2021/07/18 07:05:16;;;;;;;;;;;;;;;29.25;97.82;99005.03;1611778;89;20220;-70
2021/07/18 07:07:52;;;;;;;;;;;;;;;29.48;96.35;99006.84;1611665;89;20204;-71
2021/07/18 07:10:14;;;;;;;;;;;;;;;29.44;97.76;99002.50;1610820;87;21151;-72
2021/07/18 07:12:41;;;;;;;;;;;;;;;29.56;95.21;98999.34;1611596;89;20106;-70
2021/07/18 07:15:11;;;;;;;;;;;;;;;29.77;97.20;99003.33;1691374;83;20645;-70
2021/07/18 07:17:39;;;;;;;;;;;;;;;30.23;97.08;99001.86;1713937;82;20508;-70
2021/07/18 07:20:08;;;;;;;;;;;;;;;30.42;92.46;99011.70;1714358;82;20102;-69
2021/07/18 07:22:36;;;;;;;;;;;;;;;30.36;90.54;99004.23;1713497;82;21167;-71
2021/07/18 07:25:07;;;;;;;;;;;;;;;30.42;90.23;99006.16;1713866;82;20157;-72
2021/07/18 07:27:33;;;;;;;;;;;;;;;30.62;85.70;99010.63;1708810;82;20078;-72
2021/07/18 07:30:03;;;;;;;;;;;;;;;30.75;85.50;99011.77;1714606;82;20154;-71
2021/07/18 07:32:49;;;;;;;;;;;;;;;30.84;84.51;99016.88;1714279;82;20465;-75
2021/07/18 07:35:15;;;;;;;;;;;;;;;30.60;82.73;99013.60;1707641;82;21824;-71
2021/07/18 07:37:43;;;;;;;;;;;;;;;30.44;86.10;99009.32;1706808;84;20529;-70
2021/07/18 07:40:14;;;;;;;;;;;;;;;30.71;85.70;99005.45;1706792;84;20478;-71
2021/07/18 07:42:42;;;;;;;;;;;;;;;31.25;81.01;99009.32;1678959;84;20160;-72
2021/07/18 07:45:10;;;;;;;;;;;;;;;31.37;78.60;99010.83;1707320;83;20411;-72
2021/07/18 07:47:37;;;;;;;;;;;;;;;31.64;80.34;99009.66;1706667;83;20767;-73
2021/07/18 07:50:06;;;;;;;;;;;;;;;32.05;78.68;99011.69;1707271;83;20132;-72
2021/07/18 07:52:32;;;;;;;;;;;;;;;32.39;79.20;99013.70;1706559;83;20442;-72
2021/07/18 07:55:00;;;;;;;;;;;;;;;32.05;79.60;99010.91;1707234;83;20525;-74
2021/07/18 07:57:32;;;;;;;;;;;;;;;31.51;83.37;99015.52;1706689;83;20109;-74
2021/07/18 08:00:08;;;;;;;;;;;;;;;31.38;82.36;99019.33;1706757;84;21153;-71
2021/07/18 08:02:38;;;;;;;;;;;;;;;31.42;81.77;99019.34;1672252;86;20092;-73
2021/07/18 08:05:07;;;;;;;;;;;;;;;31.72;82.16;99019.48;1673496;85;20113;-73
2021/07/18 08:07:34;;;;;;;;;;;;;;;31.82;81.55;99021.39;1673195;86;20121;-72
2021/07/18 08:10:02;;;;;;;;;;;;;;;32.10;80.07;99019.56;1673624;85;20120;-73
2021/07/18 08:12:28;;;;;;;;;;;;;;;32.22;79.69;99018.25;1673190;86;21171;-73
2021/07/18 08:14:54;;;;;;;;;;;;;;;32.50;77.49;99014.98;1673232;85;20452;-73
2021/07/18 08:17:23;;;;;;;;;;;;;;;32.81;71.51;99018.57;1672983;86;20177;-73
2021/07/18 08:19:50;;;;;;;;;;;;;;;32.84;68.51;99016.34;1672882;86;20671;-75
2021/07/18 08:22:17;;;;;;;;;;;;;;;32.29;72.44;99015.98;1672464;86;20144;-72
2021/07/18 08:24:43;;;;;;;;;;;;;;;32.18;78.12;99015.50;1668064;84;21785;-74
2021/07/18 08:27:11;;;;;;;;;;;;;;;32.38;75.26;99018.45;1671673;84;20209;-73
2021/07/18 08:29:37;;;;;;;;;;;;;;;32.71;76.58;99016.69;1675255;84;21025;-72
2021/07/18 08:32:05;;;;;;;;;;;;;;;32.81;77.80;99023.52;1671848;84;20122;-73
2021/07/18 08:34:32;;;;;;;;;;;;;;;33.05;70.41;99023.02;1669084;85;20233;-70
2021/07/18 08:36:59;;;;;;;;;;;;;;;33.21;65.15;99027.16;1660002;86;22322;-72
2021/07/18 08:39:26;;;;;;;;;;;;;;;33.35;62.26;99020.00;1637025;86;20443;-71
2021/07/18 08:41:54;;;;;;;;;;;;;;;33.11;64.50;99016.99;1636562;87;20103;-72
2021/07/18 08:44:33;;;;;;;;;;;;;;;33.23;62.41;99019.98;1636931;87;20120;-72
2021/07/18 08:47:02;;;;;;;;;;;;;;;33.43;59.18;99021.45;1635245;87;20243;-72
2021/07/18 08:49:29;;;;;;;;;;;;;;;33.36;55.58;99028.52;1636969;87;21153;-72
2021/07/18 08:51:55;;;;;;;;;;;;;;;33.46;53.72;99026.16;1637041;87;20104;-72
2021/07/18 08:54:23;;;;;;;;;;;;;;;33.78;52.69;99022.09;1637649;87;20132;-71
2021/07/18 08:56:50;;;;;;;;;;;;;;;33.71;55.76;99026.39;1637036;87;20163;-73
2021/07/18 08:59:16;;;;;;;;;;;;;;;33.67;51.84;99020.12;1637390;87;20191;-75
2021/07/18 09:01:43;;;;;;;;;;;;;;;33.43;51.27;99024.84;1636993;87;21199;-72
2021/07/18 09:04:11;;;;;;;;;;;;;;;33.27;53.63;99021.30;1637421;87;20191;-73
2021/07/18 09:06:43;;;;;;;;;;;;;;;33.49;52.95;99022.56;1636670;87;20132;-72
2021/07/18 09:09:22;;;;;;;;;;;;;;;33.44;53.79;99019.45;1636830;87;20096;-72
2021/07/18 09:12:01;;;;;;;;;;;;;;;33.42;54.06;99012.16;1637321;87;20434;-73
2021/07/18 09:14:36;;;;;;;;;;;;;;;33.55;57.36;99012.34;1637275;87;21826;-72
2021/07/18 09:17:04;;;;;;;;;;;;;;;33.89;54.86;99011.57;1637278;87;20121;-73
2021/07/18 09:19:32;;;;;;;;;;;;;;;33.60;57.35;99011.89;1637505;87;20104;-72
2021/07/18 09:22:06;;;;;;;;;;;;;;;33.53;56.84;99012.14;1637264;87;20124;-73
2021/07/18 09:24:41;;;;;;;;;;;;;;;33.48;54.29;99018.19;1637714;87;20132;-72
2021/07/18 09:27:17;;;;;;;;;;;;;;;33.11;55.32;99011.44;1637133;87;21958;-72
2021/07/18 09:29:54;;;;;;;;;;;;;;;33.08;55.12;99008.89;1637241;87;20160;-73
2021/07/18 09:32:22;;;;;;;;;;;;;;;33.16;56.26;99001.23;1637026;87;20259;-72
2021/07/18 09:34:52;;;;;;;;;;;;;;;32.85;56.33;99008.17;1638977;86;20293;-73
2021/07/18 09:37:27;;;;;;;;;;;;;;;32.49;56.62;99004.48;1620852;87;20171;-73
2021/07/18 09:40:10;;;;;;;;;;;;;;;32.36;56.29;99006.18;1642091;87;20577;-72
2021/07/18 09:42:45;;;;;;;;;;;;;;;32.74;56.65;99001.98;1641920;87;20171;-70
2021/07/18 09:45:18;;;;;;;;;;;;;;;32.88;53.83;99002.58;1642262;87;20119;-73
2021/07/18 09:47:57;;;;;;;;;;;;;;;32.84;56.78;99006.61;1642171;87;20165;-74
2021/07/18 09:50:50;;;;;;;;;;;;;;;32.93;53.06;99005.50;1642300;85;20091;-76
2021/07/18 09:53:19;;;;;;;;;;;;;;;32.91;54.24;99003.73;1616328;87;21278;-71
2021/07/18 09:56:10;;;;;;;;;;;;;;;33.04;55.53;99000.59;1617209;88;20102;-75
2021/07/18 09:58:53;;;;;;;;;;;;;;;33.09;53.88;99000.11;1586118;88;20134;-76
2021/07/18 10:01:21;;;;;;;;;;;;;;;33.51;56.07;99007.63;1616492;88;20787;-75
2021/07/18 10:06:40;;;;;;;;;;;;;;;34.24;52.31;99003.78;1561368;91;20183;-74
2021/07/18 10:09:10;;;;;;;;;;;;;;;34.36;58.49;98999.58;1558938;91;20166;-73
2021/07/18 10:11:37;;;;;;;;;;;;;;;34.44;56.45;99007.97;1559084;91;20303;-73
2021/07/18 10:14:05;;;;;;;;;;;;;;;33.87;59.26;99006.25;1559181;91;20144;-72
2021/07/18 10:16:34;;;;;;;;;;;;;;;33.54;58.97;98999.05;1559288;91;20102;-72
2021/07/18 10:19:01;;;;;;;;;;;;;;;33.16;61.11;99004.01;1559019;91;21117;-73
2021/07/18 10:21:29;;;;;;;;;;;;;;;33.35;58.71;99008.09;1559060;91;20128;-73
2021/07/18 10:23:57;;;;;;;;;;;;;;;33.52;57.91;99001.45;1559216;91;20107;-76
2021/07/18 10:26:29;;;;;;;;;;;;;;;33.73;59.28;99005.89;1558168;91;20132;-76
2021/07/18 10:28:59;;;;;;;;;;;;;;;33.66;55.23;99006.81;1558713;91;20246;-75
2021/07/18 10:31:30;;;;;;;;;;;;;;;33.89;56.06;98999.05;1560938;91;20828;-72
2021/07/18 10:33:56;;;;;;;;;;;;;;;34.11;54.08;98996.68;1561227;90;20217;-69
2021/07/18 10:36:26;;;;;;;;;;;;;;;33.95;54.18;98995.94;1564536;90;20177;-74
2021/07/18 10:38:54;;;;;;;;;;;;;;;33.77;53.70;98987.14;1590948;90;20156;-71
2021/07/18 10:41:40;;;;;;;;;;;;;;;33.34;53.52;98989.20;1591249;90;20207;-74
2021/07/18 10:44:13;;;;;;;;;;;;;;;33.30;55.49;98987.11;1590760;90;21340;-73
2021/07/18 10:46:47;;;;;;;;;;;;;;;33.83;53.18;98979.08;1591049;90;20533;-76
2021/07/18 10:49:15;;;;;;;;;;;;;;;33.71;54.67;98974.91;1590898;90;20104;-72
2021/07/18 10:51:45;;;;;;;;;;;;;;;33.62;54.15;98973.30;1591230;90;20120;-73
2021/07/18 10:54:17;;;;;;;;;;;;;;;33.37;59.09;98973.09;1590546;90;20152;-75
2021/07/18 10:56:45;;;;;;;;;;;;;;;33.59;56.52;98967.98;1591419;90;21127;-73
2021/07/18 10:59:35;;;;;;;;;;;;;;;33.43;59.47;98969.22;1589980;90;20148;-74
2021/07/18 11:02:13;;;;;;;;;;;;;;;33.66;57.87;98978.99;1623160;85;20104;-72
2021/07/18 11:04:52;;;;;;;;;;;;;;;33.93;55.12;98980.29;1676884;85;20448;-74
2021/07/18 11:07:24;;;;;;;;;;;;;;;34.28;52.45;98977.27;1677146;85;20177;-71
2021/07/18 11:10:11;;;;;;;;;;;;;;;34.03;51.79;98976.32;1676425;85;21177;-73
2021/07/18 11:12:43;;;;;;;;;;;;;;;33.84;53.88;98968.92;1676553;85;20125;-71
2021/07/18 11:15:31;;;;;;;;;;;;;;;33.65;52.27;98966.88;1676620;84;20200;-71
2021/07/18 11:18:05;;;;;;;;;;;;;;;33.62;54.03;98961.56;1676926;85;20097;-70
2021/07/18 11:20:44;;;;;;;;;;;;;;;33.72;52.23;98961.19;1676405;85;20112;-72
2021/07/18 11:23:12;;;;;;;;;;;;;;;33.51;53.53;98959.53;1664945;85;21830;-72
2021/07/18 11:25:59;;;;;;;;;;;;;;;33.38;52.62;98959.36;1676554;85;20173;-73
2021/07/18 11:28:39;;;;;;;;;;;;;;;33.49;54.58;98957.19;1676721;85;20104;-71
2021/07/18 11:31:14;;;;;;;;;;;;;;;34.16;51.02;98963.38;1676343;85;20167;-70
2021/07/18 11:33:56;;;;;;;;;;;;;;;33.99;52.79;98953.34;1675741;85;20148;-73
2021/07/18 11:36:33;;;;;;;;;;;;;;;34.13;51.21;98954.50;1626026;86;21166;-71
2021/07/18 11:39:00;;;;;;;;;;;;;;;33.83;49.61;98952.64;1624443;87;20485;-70
2021/07/18 11:41:31;;;;;;;;;;;;;;;34.17;51.04;98951.02;1625944;87;20251;-71
2021/07/18 11:44:04;;;;;;;;;;;;;;;34.57;50.89;98953.17;1625900;87;20124;-71
2021/07/18 11:46:42;;;;;;;;;;;;;;;34.76;52.28;98953.00;1624205;87;20124;-72
2021/07/18 11:49:10;;;;;;;;;;;;;;;34.73;48.51;98951.05;1626842;87;21121;-71
2021/07/18 11:51:38;;;;;;;;;;;;;;;34.64;48.80;98943.10;1625855;87;20588;-73
2021/07/18 11:54:08;;;;;;;;;;;;;;;34.53;50.66;98944.09;1626102;87;20479;-72
2021/07/18 11:56:37;;;;;;;;;;;;;;;34.42;48.25;98937.18;1625834;87;20136;-71
2021/07/18 11:59:07;;;;;;;;;;;;;;;34.48;49.45;98942.44;1626908;87;20140;-71
2021/07/18 12:01:37;;;;;;;;;;;;;;;34.15;50.25;98936.73;1626644;87;21112;-71
2021/07/18 12:04:07;;;;;;;;;;;;;;;34.37;50.56;98934.29;1626730;87;20128;-70
2021/07/18 12:06:34;;;;;;;;;;;;;;;34.28;48.98;98939.67;1626667;87;20109;-72
2021/07/18 12:09:15;;;;;;;;;;;;;;;34.19;49.82;98943.02;1626748;87;20168;-73
2021/07/18 12:11:43;;;;;;;;;;;;;;;34.43;49.43;98937.38;1638748;85;20129;-72
2021/07/18 12:17:51;;;;;;;;;;;;;;;34.49;49.02;98934.24;1649179;84;20415;-72
2021/07/18 12:20:39;;;;;;;;;;;;;;;34.70;48.77;98923.28;1623051;86;20599;-76
2021/07/18 12:23:17;;;;;;;;;;;;;;;34.72;47.22;98919.45;1594236;87;20465;-74
2021/07/18 12:25:48;;;;;;;;;;;;;;;34.46;44.24;98920.57;1584371;88;20281;-75
2021/07/18 12:28:18;;;;;;;;;;;;;;;34.39;45.85;98909.58;1572886;89;22156;-73
2021/07/18 12:30:45;;;;;;;;;;;;;;;34.58;44.78;98903.80;1596873;88;20186;-74
2021/07/18 12:33:34;;;;;;;;;;;;;;;34.52;44.72;98909.11;1571363;89;20284;-76
2021/07/18 12:36:07;;;;;;;;;;;;;;;34.55;46.58;98909.63;1602469;88;20271;-73
2021/07/18 12:38:34;;;;;;;;;;;;;;;34.63;47.83;98906.10;1604094;88;20140;-74
2021/07/18 12:41:15;;;;;;;;;;;;;;;34.38;46.67;98914.20;1607769;88;20850;-74
2021/07/18 12:43:51;;;;;;;;;;;;;;;34.33;47.30;98902.34;1604922;88;20518;-73
2021/07/18 12:46:47;;;;;;;;;;;;;;;34.13;48.26;98894.02;1601808;88;20251;-75
2021/07/18 12:49:16;;;;;;;;;;;;;;;34.00;49.81;98896.45;1615200;87;20151;-71
2021/07/18 12:51:44;;;;;;;;;;;;;;;34.36;48.39;98886.77;1642525;84;20217;-73
2021/07/18 12:54:12;;;;;;;;;;;;;;;34.59;48.67;98883.09;1700365;83;20127;-73
2021/07/18 12:56:39;;;;;;;;;;;;;;;34.84;46.33;98883.13;1658369;84;20570;-74
2021/07/18 12:59:06;;;;;;;;;;;;;;;34.87;46.94;98878.87;1700348;83;20110;-74
2021/07/18 13:01:35;;;;;;;;;;;;;;;34.93;46.05;98873.55;1701372;84;20157;-72
2021/07/18 13:04:10;;;;;;;;;;;;;;;34.86;45.50;98866.75;1696022;84;20144;-73
2021/07/18 13:06:47;;;;;;;;;;;;;;;34.38;47.55;98874.59;1698494;83;21101;-75